sensor_id;sensor_type;location;lat;lon;timestamp;P1;durP1;ratioP1;P2;durP2;ratioP2
13785;SDS011;47474;48.824;9.384;2022-10-31T00:02:05;4.80;;;3.67;;
13785;SDS011;47474;48.824;9.384;2022-10-31T00:04:34;5.77;;;4.23;;
13785;SDS011;47474;48.824;9.384;2022-10-31T00:07:01;8.53;;;4.43;;
13785;SDS011;47474;48.824;9.384;2022-10-31T00:09:28;5.13;;;4.00;;
13785;SDS011;47474;48.824;9.384;2022-10-31T00:11:54;5.10;;;3.80;;
13785;SDS011;47474;48.824;9.384;2022-10-31T00:14:23;7.80;;;4.20;;
13785;SDS011;47474;48.824;9.384;2022-10-31T00:16:49;7.60;;;4.33;;
13785;SDS011;47474;48.824;9.384;2022-10-31T00:19:16;5.83;;;4.77;;
13785;SDS011;47474;48.824;9.384;2022-10-31T00:21:43;5.57;;;3.97;;
13785;SDS011;47474;48.824;9.384;2022-10-31T00:24:10;5.50;;;4.50;;
13785;SDS011;47474;48.824;9.384;2022-10-31T00:26:37;7.50;;;4.83;;
13785;SDS011;47474;48.824;9.384;2022-10-31T00:29:05;6.20;;;3.93;;
13785;SDS011;47474;48.824;9.384;2022-10-31T00:31:32;6.27;;;4.97;;
13785;SDS011;47474;48.824;9.384;2022-10-31T00:33:58;9.53;;;4.50;;
13785;SDS011;47474;48.824;9.384;2022-10-31T00:36:27;11.43;;;4.63;;
13785;SDS011;47474;48.824;9.384;2022-10-31T00:38:54;7.67;;;4.30;;
13785;SDS011;47474;48.824;9.384;2022-10-31T00:41:21;6.93;;;3.93;;
13785;SDS011;47474;48.824;9.384;2022-10-31T00:43:48;5.53;;;4.17;;
13785;SDS011;47474;48.824;9.384;2022-10-31T00:46:16;7.10;;;4.20;;
13785;SDS011;47474;48.824;9.384;2022-10-31T00:48:42;7.50;;;4.13;;
13785;SDS011;47474;48.824;9.384;2022-10-31T00:51:09;5.90;;;4.53;;
13785;SDS011;47474;48.824;9.384;2022-10-31T00:53:36;6.23;;;4.40;;
13785;SDS011;47474;48.824;9.384;2022-10-31T00:56:03;7.77;;;4.90;;
13785;SDS011;47474;48.824;9.384;2022-10-31T00:58:30;7.03;;;4.30;;
13785;SDS011;47474;48.824;9.384;2022-10-31T01:00:57;5.60;;;4.43;;
13785;SDS011;47474;48.824;9.384;2022-10-31T01:03:26;5.43;;;4.37;;
13785;SDS011;47474;48.824;9.384;2022-10-31T01:06:10;10.13;;;5.17;;
13785;SDS011;47474;48.824;9.384;2022-10-31T01:08:38;5.33;;;3.90;;
13785;SDS011;47474;48.824;9.384;2022-10-31T01:11:06;7.00;;;4.37;;
13785;SDS011;47474;48.824;9.384;2022-10-31T01:13:34;6.63;;;4.00;;
13785;SDS011;47474;48.824;9.384;2022-10-31T01:16:01;6.17;;;3.63;;
13785;SDS011;47474;48.824;9.384;2022-10-31T01:18:31;7.43;;;4.40;;
13785;SDS011;47474;48.824;9.384;2022-10-31T01:20:58;6.67;;;4.37;;
13785;SDS011;47474;48.824;9.384;2022-10-31T01:23:26;8.33;;;4.13;;
13785;SDS011;47474;48.824;9.384;2022-10-31T01:26:00;8.20;;;4.50;;
13785;SDS011;47474;48.824;9.384;2022-10-31T01:28:27;7.33;;;4.20;;
13785;SDS011;47474;48.824;9.384;2022-10-31T01:30:54;8.93;;;4.23;;
13785;SDS011;47474;48.824;9.384;2022-10-31T01:33:21;9.23;;;5.17;;
13785;SDS011;47474;48.824;9.384;2022-10-31T01:35:49;9.33;;;4.50;;
13785;SDS011;47474;48.824;9.384;2022-10-31T01:38:16;5.53;;;4.07;;
13785;SDS011;47474;48.824;9.384;2022-10-31T01:40:42;4.83;;;3.77;;
13785;SDS011;47474;48.824;9.384;2022-10-31T01:43:10;6.27;;;4.53;;
13785;SDS011;47474;48.824;9.384;2022-10-31T01:45:38;5.10;;;4.23;;
13785;SDS011;47474;48.824;9.384;2022-10-31T01:48:06;6.37;;;4.37;;
13785;SDS011;47474;48.824;9.384;2022-10-31T01:50:38;7.47;;;4.43;;
13785;SDS011;47474;48.824;9.384;2022-10-31T01:53:06;6.53;;;4.13;;
13785;SDS011;47474;48.824;9.384;2022-10-31T01:55:35;5.07;;;3.77;;
13785;SDS011;47474;48.824;9.384;2022-10-31T01:58:22;7.93;;;4.47;;
13785;SDS011;47474;48.824;9.384;2022-10-31T02:00:53;5.57;;;4.17;;
13785;SDS011;47474;48.824;9.384;2022-10-31T02:03:22;8.40;;;4.47;;
13785;SDS011;47474;48.824;9.384;2022-10-31T02:06:04;8.30;;;3.60;;
13785;SDS011;47474;48.824;9.384;2022-10-31T02:08:34;5.63;;;4.40;;
13785;SDS011;47474;48.824;9.384;2022-10-31T02:11:01;8.50;;;3.63;;
13785;SDS011;47474;48.824;9.384;2022-10-31T02:13:28;5.70;;;4.10;;
13785;SDS011;47474;48.824;9.384;2022-10-31T02:15:56;5.57;;;4.33;;
13785;SDS011;47474;48.824;9.384;2022-10-31T02:18:26;6.30;;;3.83;;
13785;SDS011;47474;48.824;9.384;2022-10-31T02:26:52;6.00;;;4.03;;
13785;SDS011;47474;48.824;9.384;2022-10-31T02:29:37;7.17;;;4.20;;
13785;SDS011;47474;48.824;9.384;2022-10-31T02:35:35;7.50;;;4.13;;
13785;SDS011;47474;48.824;9.384;2022-10-31T02:38:12;6.57;;;4.07;;
13785;SDS011;47474;48.824;9.384;2022-10-31T02:40:46;7.47;;;4.00;;
13785;SDS011;47474;48.824;9.384;2022-10-31T02:43:52;6.53;;;3.90;;
13785;SDS011;47474;48.824;9.384;2022-10-31T02:46:29;4.93;;;3.67;;
13785;SDS011;47474;48.824;9.384;2022-10-31T02:49:03;9.37;;;5.17;;
13785;SDS011;47474;48.824;9.384;2022-10-31T02:51:55;6.57;;;4.17;;
13785;SDS011;47474;48.824;9.384;2022-10-31T02:54:22;10.10;;;4.50;;
13785;SDS011;47474;48.824;9.384;2022-10-31T02:56:50;7.40;;;4.10;;
13785;SDS011;47474;48.824;9.384;2022-10-31T02:59:18;5.60;;;3.87;;
13785;SDS011;47474;48.824;9.384;2022-10-31T03:01:47;8.23;;;4.43;;
13785;SDS011;47474;48.824;9.384;2022-10-31T03:04:34;4.30;;;3.50;;
13785;SDS011;47474;48.824;9.384;2022-10-31T03:07:19;5.00;;;3.80;;
13785;SDS011;47474;48.824;9.384;2022-10-31T03:09:51;6.57;;;4.00;;
13785;SDS011;47474;48.824;9.384;2022-10-31T03:12:22;4.93;;;3.90;;
13785;SDS011;47474;48.824;9.384;2022-10-31T03:14:53;6.40;;;3.57;;
13785;SDS011;47474;48.824;9.384;2022-10-31T03:17:25;4.43;;;3.70;;
13785;SDS011;47474;48.824;9.384;2022-10-31T03:19:55;5.43;;;3.87;;
13785;SDS011;47474;48.824;9.384;2022-10-31T03:22:26;5.90;;;3.53;;
13785;SDS011;47474;48.824;9.384;2022-10-31T03:24:55;4.73;;;3.80;;
13785;SDS011;47474;48.824;9.384;2022-10-31T03:27:23;4.60;;;3.60;;
13785;SDS011;47474;48.824;9.384;2022-10-31T03:29:51;5.33;;;4.00;;
13785;SDS011;47474;48.824;9.384;2022-10-31T03:32:21;9.70;;;3.67;;
13785;SDS011;47474;48.824;9.384;2022-10-31T03:34:50;9.53;;;4.17;;
13785;SDS011;47474;48.824;9.384;2022-10-31T03:37:21;4.53;;;3.87;;
13785;SDS011;47474;48.824;9.384;2022-10-31T03:39:49;5.53;;;3.80;;
13785;SDS011;47474;48.824;9.384;2022-10-31T03:42:16;5.43;;;4.20;;
13785;SDS011;47474;48.824;9.384;2022-10-31T03:44:46;5.07;;;3.63;;
13785;SDS011;47474;48.824;9.384;2022-10-31T03:47:22;7.80;;;4.40;;
13785;SDS011;47474;48.824;9.384;2022-10-31T03:49:49;10.23;;;4.60;;
13785;SDS011;47474;48.824;9.384;2022-10-31T03:52:18;10.03;;;4.80;;
13785;SDS011;47474;48.824;9.384;2022-10-31T03:54:50;5.77;;;4.13;;
13785;SDS011;47474;48.824;9.384;2022-10-31T03:57:19;5.90;;;4.33;;
13785;SDS011;47474;48.824;9.384;2022-10-31T03:59:51;8.57;;;4.50;;
13785;SDS011;47474;48.824;9.384;2022-10-31T04:02:20;6.10;;;3.80;;
13785;SDS011;47474;48.824;9.384;2022-10-31T04:04:48;7.73;;;3.87;;
13785;SDS011;47474;48.824;9.384;2022-10-31T04:07:15;4.87;;;3.33;;
13785;SDS011;47474;48.824;9.384;2022-10-31T04:09:44;7.47;;;4.03;;
13785;SDS011;47474;48.824;9.384;2022-10-31T04:12:12;10.00;;;4.20;;
13785;SDS011;47474;48.824;9.384;2022-10-31T04:14:41;4.87;;;3.97;;
13785;SDS011;47474;48.824;9.384;2022-10-31T04:17:09;6.20;;;4.17;;
13785;SDS011;47474;48.824;9.384;2022-10-31T04:19:38;6.63;;;4.10;;
13785;SDS011;47474;48.824;9.384;2022-10-31T04:22:05;6.53;;;4.27;;
13785;SDS011;47474;48.824;9.384;2022-10-31T04:24:32;5.20;;;3.83;;
13785;SDS011;47474;48.824;9.384;2022-10-31T04:27:00;5.63;;;4.37;;
13785;SDS011;47474;48.824;9.384;2022-10-31T04:29:26;7.17;;;4.40;;
13785;SDS011;47474;48.824;9.384;2022-10-31T04:31:53;5.63;;;3.83;;
13785;SDS011;47474;48.824;9.384;2022-10-31T04:34:20;8.33;;;4.10;;
13785;SDS011;47474;48.824;9.384;2022-10-31T04:36:46;4.10;;;3.70;;
13785;SDS011;47474;48.824;9.384;2022-10-31T04:39:13;8.37;;;4.20;;
13785;SDS011;47474;48.824;9.384;2022-10-31T04:41:40;5.83;;;3.60;;
13785;SDS011;47474;48.824;9.384;2022-10-31T04:44:09;6.60;;;3.70;;
13785;SDS011;47474;48.824;9.384;2022-10-31T04:46:36;6.03;;;3.43;;
13785;SDS011;47474;48.824;9.384;2022-10-31T04:49:05;4.73;;;3.63;;
13785;SDS011;47474;48.824;9.384;2022-10-31T04:51:32;6.30;;;3.53;;
13785;SDS011;47474;48.824;9.384;2022-10-31T04:53:59;8.00;;;3.63;;
13785;SDS011;47474;48.824;9.384;2022-10-31T04:56:25;6.53;;;3.60;;
13785;SDS011;47474;48.824;9.384;2022-10-31T04:58:52;4.13;;;3.40;;
13785;SDS011;47474;48.824;9.384;2022-10-31T05:01:20;7.80;;;4.37;;
13785;SDS011;47474;48.824;9.384;2022-10-31T05:03:46;5.50;;;3.67;;
13785;SDS011;47474;48.824;9.384;2022-10-31T05:06:13;5.00;;;3.77;;
13785;SDS011;47474;48.824;9.384;2022-10-31T05:08:41;6.83;;;4.33;;
13785;SDS011;47474;48.824;9.384;2022-10-31T05:11:08;6.93;;;4.63;;
13785;SDS011;47474;48.824;9.384;2022-10-31T05:13:34;5.70;;;3.80;;
13785;SDS011;47474;48.824;9.384;2022-10-31T05:16:01;6.00;;;4.17;;
13785;SDS011;47474;48.824;9.384;2022-10-31T05:18:29;3.90;;;3.50;;
13785;SDS011;47474;48.824;9.384;2022-10-31T05:20:56;5.23;;;4.60;;
13785;SDS011;47474;48.824;9.384;2022-10-31T05:23:22;4.67;;;3.83;;
13785;SDS011;47474;48.824;9.384;2022-10-31T05:25:49;5.63;;;4.07;;
13785;SDS011;47474;48.824;9.384;2022-10-31T05:28:16;5.57;;;3.70;;
13785;SDS011;47474;48.824;9.384;2022-10-31T05:30:42;5.07;;;3.97;;
13785;SDS011;47474;48.824;9.384;2022-10-31T05:33:09;7.83;;;4.07;;
13785;SDS011;47474;48.824;9.384;2022-10-31T05:35:37;8.87;;;4.63;;
13785;SDS011;47474;48.824;9.384;2022-10-31T05:38:03;7.00;;;3.90;;
13785;SDS011;47474;48.824;9.384;2022-10-31T05:40:30;7.07;;;4.00;;
13785;SDS011;47474;48.824;9.384;2022-10-31T05:42:57;6.63;;;3.77;;
13785;SDS011;47474;48.824;9.384;2022-10-31T05:45:24;6.63;;;3.80;;
13785;SDS011;47474;48.824;9.384;2022-10-31T05:47:51;7.63;;;4.17;;
13785;SDS011;47474;48.824;9.384;2022-10-31T05:50:18;6.37;;;3.90;;
13785;SDS011;47474;48.824;9.384;2022-10-31T05:52:47;6.53;;;3.90;;
13785;SDS011;47474;48.824;9.384;2022-10-31T05:55:13;5.87;;;4.40;;
13785;SDS011;47474;48.824;9.384;2022-10-31T05:57:40;6.83;;;4.33;;
13785;SDS011;47474;48.824;9.384;2022-10-31T06:00:07;5.50;;;3.90;;
13785;SDS011;47474;48.824;9.384;2022-10-31T06:02:35;5.17;;;4.07;;
13785;SDS011;47474;48.824;9.384;2022-10-31T06:05:02;7.00;;;4.23;;
13785;SDS011;47474;48.824;9.384;2022-10-31T06:07:31;7.20;;;4.37;;
13785;SDS011;47474;48.824;9.384;2022-10-31T06:10:00;5.47;;;4.07;;
13785;SDS011;47474;48.824;9.384;2022-10-31T06:12:29;6.63;;;4.07;;
13785;SDS011;47474;48.824;9.384;2022-10-31T06:14:56;6.63;;;3.77;;
13785;SDS011;47474;48.824;9.384;2022-10-31T06:17:22;6.57;;;3.73;;
13785;SDS011;47474;48.824;9.384;2022-10-31T06:19:49;5.07;;;4.17;;
13785;SDS011;47474;48.824;9.384;2022-10-31T06:22:16;8.17;;;5.30;;
13785;SDS011;47474;48.824;9.384;2022-10-31T06:24:42;11.03;;;6.13;;
13785;SDS011;47474;48.824;9.384;2022-10-31T06:27:10;8.10;;;6.20;;
13785;SDS011;47474;48.824;9.384;2022-10-31T06:29:37;7.03;;;5.63;;
13785;SDS011;47474;48.824;9.384;2022-10-31T06:32:03;6.93;;;4.57;;
13785;SDS011;47474;48.824;9.384;2022-10-31T06:34:30;6.23;;;4.43;;
13785;SDS011;47474;48.824;9.384;2022-10-31T06:36:57;6.87;;;4.10;;
13785;SDS011;47474;48.824;9.384;2022-10-31T06:39:23;4.37;;;3.57;;
13785;SDS011;47474;48.824;9.384;2022-10-31T06:41:50;7.00;;;3.97;;
13785;SDS011;47474;48.824;9.384;2022-10-31T06:44:19;8.80;;;3.50;;
13785;SDS011;47474;48.824;9.384;2022-10-31T06:46:48;5.43;;;3.80;;
13785;SDS011;47474;48.824;9.384;2022-10-31T06:49:16;7.70;;;4.30;;
13785;SDS011;47474;48.824;9.384;2022-10-31T06:51:46;7.53;;;4.13;;
13785;SDS011;47474;48.824;9.384;2022-10-31T06:54:13;5.73;;;3.80;;
13785;SDS011;47474;48.824;9.384;2022-10-31T06:56:40;5.80;;;4.67;;
13785;SDS011;47474;48.824;9.384;2022-10-31T06:59:06;5.23;;;4.00;;
13785;SDS011;47474;48.824;9.384;2022-10-31T07:01:34;6.73;;;4.30;;
13785;SDS011;47474;48.824;9.384;2022-10-31T07:04:01;9.70;;;4.30;;
13785;SDS011;47474;48.824;9.384;2022-10-31T07:06:28;6.27;;;4.27;;
13785;SDS011;47474;48.824;9.384;2022-10-31T07:08:54;8.30;;;4.67;;
13785;SDS011;47474;48.824;9.384;2022-10-31T07:11:21;8.40;;;4.80;;
13785;SDS011;47474;48.824;9.384;2022-10-31T07:13:47;6.53;;;4.67;;
13785;SDS011;47474;48.824;9.384;2022-10-31T07:16:14;6.60;;;4.57;;
13785;SDS011;47474;48.824;9.384;2022-10-31T07:18:42;5.17;;;4.30;;
13785;SDS011;47474;48.824;9.384;2022-10-31T07:21:08;9.80;;;4.83;;
13785;SDS011;47474;48.824;9.384;2022-10-31T07:23:35;6.73;;;4.50;;
13785;SDS011;47474;48.824;9.384;2022-10-31T07:26:02;7.37;;;5.20;;
13785;SDS011;47474;48.824;9.384;2022-10-31T07:28:28;7.77;;;4.03;;
13785;SDS011;47474;48.824;9.384;2022-10-31T07:30:56;6.47;;;4.30;;
13785;SDS011;47474;48.824;9.384;2022-10-31T07:33:23;7.23;;;4.53;;
13785;SDS011;47474;48.824;9.384;2022-10-31T07:35:53;6.77;;;4.40;;
13785;SDS011;47474;48.824;9.384;2022-10-31T07:38:20;7.40;;;4.33;;
13785;SDS011;47474;48.824;9.384;2022-10-31T07:40:49;5.73;;;4.07;;
13785;SDS011;47474;48.824;9.384;2022-10-31T07:43:16;5.07;;;3.90;;
13785;SDS011;47474;48.824;9.384;2022-10-31T07:45:43;5.80;;;3.73;;
13785;SDS011;47474;48.824;9.384;2022-10-31T07:48:14;6.03;;;3.90;;
13785;SDS011;47474;48.824;9.384;2022-10-31T07:50:41;4.73;;;4.00;;
13785;SDS011;47474;48.824;9.384;2022-10-31T07:53:12;7.00;;;4.53;;
13785;SDS011;47474;48.824;9.384;2022-10-31T07:55:39;4.63;;;4.03;;
13785;SDS011;47474;48.824;9.384;2022-10-31T07:58:07;5.93;;;4.30;;
13785;SDS011;47474;48.824;9.384;2022-10-31T08:00:35;5.97;;;4.13;;
13785;SDS011;47474;48.824;9.384;2022-10-31T08:03:03;5.00;;;4.30;;
13785;SDS011;47474;48.824;9.384;2022-10-31T08:05:31;9.80;;;4.63;;
13785;SDS011;47474;48.824;9.384;2022-10-31T08:07:58;6.33;;;4.83;;
13785;SDS011;47474;48.824;9.384;2022-10-31T08:10:27;7.67;;;4.67;;
13785;SDS011;47474;48.824;9.384;2022-10-31T08:12:57;8.63;;;5.57;;
13785;SDS011;47474;48.824;9.384;2022-10-31T08:15:24;8.23;;;5.80;;
13785;SDS011;47474;48.824;9.384;2022-10-31T08:17:51;8.53;;;5.73;;
13785;SDS011;47474;48.824;9.384;2022-10-31T08:20:17;8.80;;;5.60;;
13785;SDS011;47474;48.824;9.384;2022-10-31T08:22:51;9.13;;;5.53;;
13785;SDS011;47474;48.824;9.384;2022-10-31T08:25:21;11.97;;;5.43;;
13785;SDS011;47474;48.824;9.384;2022-10-31T08:27:50;6.77;;;4.70;;
13785;SDS011;47474;48.824;9.384;2022-10-31T08:30:17;8.10;;;4.47;;
13785;SDS011;47474;48.824;9.384;2022-10-31T08:32:44;6.00;;;4.67;;
13785;SDS011;47474;48.824;9.384;2022-10-31T08:35:10;9.57;;;4.73;;
13785;SDS011;47474;48.824;9.384;2022-10-31T08:37:37;9.40;;;4.83;;
13785;SDS011;47474;48.824;9.384;2022-10-31T08:40:04;6.90;;;4.00;;
13785;SDS011;47474;48.824;9.384;2022-10-31T08:42:31;8.83;;;5.10;;
13785;SDS011;47474;48.824;9.384;2022-10-31T08:44:59;5.23;;;4.40;;
13785;SDS011;47474;48.824;9.384;2022-10-31T08:47:26;6.30;;;4.30;;
13785;SDS011;47474;48.824;9.384;2022-10-31T08:49:52;8.67;;;5.10;;
13785;SDS011;47474;48.824;9.384;2022-10-31T08:52:22;5.20;;;4.43;;
13785;SDS011;47474;48.824;9.384;2022-10-31T09:05:32;10.43;;;4.57;;
13785;SDS011;47474;48.824;9.384;2022-10-31T09:08:13;7.73;;;5.47;;
13785;SDS011;47474;48.824;9.384;2022-10-31T09:13:28;11.23;;;4.83;;
13785;SDS011;47474;48.824;9.384;2022-10-31T09:15:55;6.83;;;4.67;;
13785;SDS011;47474;48.824;9.384;2022-10-31T09:18:22;12.13;;;4.93;;
13785;SDS011;47474;48.824;9.384;2022-10-31T09:20:56;6.97;;;4.43;;
13785;SDS011;47474;48.824;9.384;2022-10-31T09:23:23;5.53;;;4.70;;
13785;SDS011;47474;48.824;9.384;2022-10-31T09:25:51;8.43;;;4.40;;
13785;SDS011;47474;48.824;9.384;2022-10-31T09:28:20;7.17;;;4.90;;
13785;SDS011;47474;48.824;9.384;2022-10-31T09:31:06;7.23;;;5.00;;
13785;SDS011;47474;48.824;9.384;2022-10-31T09:33:39;9.63;;;4.43;;
13785;SDS011;47474;48.824;9.384;2022-10-31T09:36:27;8.47;;;4.30;;
13785;SDS011;47474;48.824;9.384;2022-10-31T09:38:54;7.20;;;4.90;;
13785;SDS011;47474;48.824;9.384;2022-10-31T09:41:22;7.60;;;4.20;;
13785;SDS011;47474;48.824;9.384;2022-10-31T09:44:18;7.70;;;4.50;;
13785;SDS011;47474;48.824;9.384;2022-10-31T09:47:06;6.97;;;4.43;;
13785;SDS011;47474;48.824;9.384;2022-10-31T09:53:19;4.73;;;4.23;;
13785;SDS011;47474;48.824;9.384;2022-10-31T09:56:05;6.80;;;4.50;;
13785;SDS011;47474;48.824;9.384;2022-10-31T09:58:33;6.37;;;3.97;;
13785;SDS011;47474;48.824;9.384;2022-10-31T10:01:42;6.63;;;4.90;;
13785;SDS011;47474;48.824;9.384;2022-10-31T10:07:16;11.57;;;5.17;;
13785;SDS011;47474;48.824;9.384;2022-10-31T10:10:17;6.67;;;3.50;;
13785;SDS011;47474;48.824;9.384;2022-10-31T10:21:35;7.00;;;4.10;;
13785;SDS011;47474;48.824;9.384;2022-10-31T10:24:12;5.53;;;4.67;;
13785;SDS011;47474;48.824;9.384;2022-10-31T10:27:19;6.60;;;4.03;;
13785;SDS011;47474;48.824;9.384;2022-10-31T10:29:50;5.57;;;4.40;;
13785;SDS011;47474;48.824;9.384;2022-10-31T10:32:25;7.67;;;4.73;;
13785;SDS011;47474;48.824;9.384;2022-10-31T10:34:54;8.02;;;3.95;;
13785;SDS011;47474;48.824;9.384;2022-10-31T10:37:28;9.83;;;4.53;;
13785;SDS011;47474;48.824;9.384;2022-10-31T10:40:13;7.63;;;4.57;;
13785;SDS011;47474;48.824;9.384;2022-10-31T10:42:50;6.13;;;4.10;;
13785;SDS011;47474;48.824;9.384;2022-10-31T10:45:49;7.15;;;4.43;;
13785;SDS011;47474;48.824;9.384;2022-10-31T10:48:49;9.70;;;4.90;;
13785;SDS011;47474;48.824;9.384;2022-10-31T10:51:43;13.10;;;5.63;;
13785;SDS011;47474;48.824;9.384;2022-10-31T10:54:19;9.07;;;5.38;;
13785;SDS011;47474;48.824;9.384;2022-10-31T10:57:18;9.57;;;5.82;;
13785;SDS011;47474;48.824;9.384;2022-10-31T11:00:15;7.63;;;4.85;;
13785;SDS011;47474;48.824;9.384;2022-10-31T11:03:11;6.00;;;3.97;;
13785;SDS011;47474;48.824;9.384;2022-10-31T11:05:40;7.38;;;4.72;;
13785;SDS011;47474;48.824;9.384;2022-10-31T11:08:10;9.20;;;4.95;;
13785;SDS011;47474;48.824;9.384;2022-10-31T11:10:41;10.15;;;6.45;;
13785;SDS011;47474;48.824;9.384;2022-10-31T11:13:17;7.45;;;4.00;;
13785;SDS011;47474;48.824;9.384;2022-10-31T11:15:55;7.30;;;4.05;;
13785;SDS011;47474;48.824;9.384;2022-10-31T11:18:24;11.43;;;6.25;;
13785;SDS011;47474;48.824;9.384;2022-10-31T11:20:53;9.05;;;5.28;;
13785;SDS011;47474;48.824;9.384;2022-10-31T11:23:24;8.55;;;4.68;;
13785;SDS011;47474;48.824;9.384;2022-10-31T11:25:53;6.85;;;4.20;;
13785;SDS011;47474;48.824;9.384;2022-10-31T11:28:22;6.22;;;4.18;;
13785;SDS011;47474;48.824;9.384;2022-10-31T11:30:50;8.30;;;4.75;;
13785;SDS011;47474;48.824;9.384;2022-10-31T11:33:21;6.25;;;4.43;;
13785;SDS011;47474;48.824;9.384;2022-10-31T11:35:54;11.70;;;5.00;;
13785;SDS011;47474;48.824;9.384;2022-10-31T11:38:21;6.68;;;4.28;;
13785;SDS011;47474;48.824;9.384;2022-10-31T11:40:56;8.13;;;5.05;;
13785;SDS011;47474;48.824;9.384;2022-10-31T11:43:25;7.93;;;4.78;;
13785;SDS011;47474;48.824;9.384;2022-10-31T11:45:52;7.88;;;5.07;;
13785;SDS011;47474;48.824;9.384;2022-10-31T11:48:21;5.35;;;3.75;;
13785;SDS011;47474;48.824;9.384;2022-10-31T11:50:50;8.45;;;4.00;;
13785;SDS011;47474;48.824;9.384;2022-10-31T11:53:19;6.40;;;3.88;;
13785;SDS011;47474;48.824;9.384;2022-10-31T11:55:59;5.40;;;3.78;;
13785;SDS011;47474;48.824;9.384;2022-10-31T11:58:31;4.20;;;3.53;;
13785;SDS011;47474;48.824;9.384;2022-10-31T12:01:05;8.50;;;3.58;;
13785;SDS011;47474;48.824;9.384;2022-10-31T12:03:51;5.50;;;3.40;;
13785;SDS011;47474;48.824;9.384;2022-10-31T12:06:36;6.18;;;3.75;;
13785;SDS011;47474;48.824;9.384;2022-10-31T12:09:09;11.80;;;4.47;;
13785;SDS011;47474;48.824;9.384;2022-10-31T12:11:48;10.80;;;3.80;;
13785;SDS011;47474;48.824;9.384;2022-10-31T12:14:26;7.90;;;4.05;;
13785;SDS011;47474;48.824;9.384;2022-10-31T12:17:00;9.93;;;4.43;;
13785;SDS011;47474;48.824;9.384;2022-10-31T12:19:34;11.23;;;4.22;;
13785;SDS011;47474;48.824;9.384;2022-10-31T12:22:05;6.22;;;4.10;;
13785;SDS011;47474;48.824;9.384;2022-10-31T12:24:39;6.45;;;3.83;;
13785;SDS011;47474;48.824;9.384;2022-10-31T12:27:14;6.75;;;3.60;;
13785;SDS011;47474;48.824;9.384;2022-10-31T12:29:52;8.73;;;5.20;;
13785;SDS011;47474;48.824;9.384;2022-10-31T12:32:39;7.45;;;4.53;;
13785;SDS011;47474;48.824;9.384;2022-10-31T12:38:06;6.55;;;3.92;;
13785;SDS011;47474;48.824;9.384;2022-10-31T12:40:43;5.63;;;4.32;;
13785;SDS011;47474;48.824;9.384;2022-10-31T12:43:22;7.18;;;4.22;;
13785;SDS011;47474;48.824;9.384;2022-10-31T12:45:55;5.90;;;3.67;;
13785;SDS011;47474;48.824;9.384;2022-10-31T12:51:18;6.65;;;3.90;;
13785;SDS011;47474;48.824;9.384;2022-10-31T12:53:55;7.00;;;3.85;;
13785;SDS011;47474;48.824;9.384;2022-10-31T12:56:32;3.75;;;3.22;;
13785;SDS011;47474;48.824;9.384;2022-10-31T12:59:08;5.15;;;3.80;;
13785;SDS011;47474;48.824;9.384;2022-10-31T13:01:39;5.90;;;3.67;;
13785;SDS011;47474;48.824;9.384;2022-10-31T13:04:11;5.03;;;3.92;;
13785;SDS011;47474;48.824;9.384;2022-10-31T13:06:47;5.60;;;3.33;;
13785;SDS011;47474;48.824;9.384;2022-10-31T13:09:17;7.53;;;3.88;;
13785;SDS011;47474;48.824;9.384;2022-10-31T13:11:46;5.63;;;3.45;;
13785;SDS011;47474;48.824;9.384;2022-10-31T13:14:17;8.68;;;3.75;;
13785;SDS011;47474;48.824;9.384;2022-10-31T13:16:49;11.15;;;5.85;;
13785;SDS011;47474;48.824;9.384;2022-10-31T13:19:20;9.57;;;6.82;;
13785;SDS011;47474;48.824;9.384;2022-10-31T13:21:53;8.75;;;6.30;;
13785;SDS011;47474;48.824;9.384;2022-10-31T13:24:26;10.30;;;5.40;;
13785;SDS011;47474;48.824;9.384;2022-10-31T13:26:57;5.57;;;4.82;;
13785;SDS011;47474;48.824;9.384;2022-10-31T13:29:26;5.95;;;4.63;;
13785;SDS011;47474;48.824;9.384;2022-10-31T13:31:55;8.93;;;4.35;;
13785;SDS011;47474;48.824;9.384;2022-10-31T13:34:25;8.18;;;4.28;;
13785;SDS011;47474;48.824;9.384;2022-10-31T13:36:59;5.25;;;3.95;;
13785;SDS011;47474;48.824;9.384;2022-10-31T13:39:32;6.55;;;4.53;;
13785;SDS011;47474;48.824;9.384;2022-10-31T13:42:11;8.57;;;4.25;;
13785;SDS011;47474;48.824;9.384;2022-10-31T13:44:40;5.00;;;4.10;;
13785;SDS011;47474;48.824;9.384;2022-10-31T13:47:20;9.85;;;5.78;;
13785;SDS011;47474;48.824;9.384;2022-10-31T13:49:48;12.65;;;7.45;;
13785;SDS011;47474;48.824;9.384;2022-10-31T13:52:22;15.18;;;9.23;;
13785;SDS011;47474;48.824;9.384;2022-10-31T13:54:51;17.33;;;11.55;;
13785;SDS011;47474;48.824;9.384;2022-10-31T13:57:22;12.57;;;7.80;;
13785;SDS011;47474;48.824;9.384;2022-10-31T13:59:56;12.43;;;6.10;;
13785;SDS011;47474;48.824;9.384;2022-10-31T14:02:25;8.38;;;5.70;;
13785;SDS011;47474;48.824;9.384;2022-10-31T14:04:55;12.48;;;6.13;;
13785;SDS011;47474;48.824;9.384;2022-10-31T14:07:25;12.27;;;4.97;;
13785;SDS011;47474;48.824;9.384;2022-10-31T14:09:53;12.80;;;7.57;;
13785;SDS011;47474;48.824;9.384;2022-10-31T14:12:23;11.48;;;6.82;;
13785;SDS011;47474;48.824;9.384;2022-10-31T14:14:56;11.50;;;5.28;;
13785;SDS011;47474;48.824;9.384;2022-10-31T14:17:24;8.75;;;4.80;;
13785;SDS011;47474;48.824;9.384;2022-10-31T14:19:58;8.30;;;5.18;;
13785;SDS011;47474;48.824;9.384;2022-10-31T14:22:30;7.28;;;4.80;;
13785;SDS011;47474;48.824;9.384;2022-10-31T14:24:58;5.78;;;4.40;;
13785;SDS011;47474;48.824;9.384;2022-10-31T14:27:34;8.35;;;4.68;;
13785;SDS011;47474;48.824;9.384;2022-10-31T14:30:15;8.18;;;4.63;;
13785;SDS011;47474;48.824;9.384;2022-10-31T14:32:43;8.93;;;4.85;;
13785;SDS011;47474;48.824;9.384;2022-10-31T14:35:13;10.25;;;4.85;;
13785;SDS011;47474;48.824;9.384;2022-10-31T14:37:48;9.73;;;4.65;;
13785;SDS011;47474;48.824;9.384;2022-10-31T14:40:25;10.80;;;4.57;;
13785;SDS011;47474;48.824;9.384;2022-10-31T14:43:19;8.20;;;4.88;;
13785;SDS011;47474;48.824;9.384;2022-10-31T14:45:57;5.88;;;4.30;;
13785;SDS011;47474;48.824;9.384;2022-10-31T14:48:37;6.60;;;4.40;;
13785;SDS011;47474;48.824;9.384;2022-10-31T14:51:10;6.93;;;4.00;;
13785;SDS011;47474;48.824;9.384;2022-10-31T14:53:42;7.55;;;4.15;;
13785;SDS011;47474;48.824;9.384;2022-10-31T14:56:11;6.80;;;3.92;;
13785;SDS011;47474;48.824;9.384;2022-10-31T14:58:39;7.80;;;4.38;;
13785;SDS011;47474;48.824;9.384;2022-10-31T15:01:07;5.80;;;4.15;;
13785;SDS011;47474;48.824;9.384;2022-10-31T15:03:44;7.88;;;4.05;;
13785;SDS011;47474;48.824;9.384;2022-10-31T15:06:12;7.45;;;5.60;;
13785;SDS011;47474;48.824;9.384;2022-10-31T15:08:43;7.30;;;5.20;;
13785;SDS011;47474;48.824;9.384;2022-10-31T15:11:11;7.95;;;5.63;;
13785;SDS011;47474;48.824;9.384;2022-10-31T15:13:43;11.68;;;5.40;;
13785;SDS011;47474;48.824;9.384;2022-10-31T15:16:10;8.82;;;5.43;;
13785;SDS011;47474;48.824;9.384;2022-10-31T15:18:38;9.68;;;4.75;;
13785;SDS011;47474;48.824;9.384;2022-10-31T15:21:13;8.20;;;5.47;;
13785;SDS011;47474;48.824;9.384;2022-10-31T15:23:42;6.57;;;5.03;;
13785;SDS011;47474;48.824;9.384;2022-10-31T15:26:11;7.20;;;4.78;;
13785;SDS011;47474;48.824;9.384;2022-10-31T15:28:41;8.32;;;4.75;;
13785;SDS011;47474;48.824;9.384;2022-10-31T15:31:12;6.53;;;5.22;;
13785;SDS011;47474;48.824;9.384;2022-10-31T15:33:40;5.88;;;4.75;;
13785;SDS011;47474;48.824;9.384;2022-10-31T15:36:17;9.43;;;4.82;;
13785;SDS011;47474;48.824;9.384;2022-10-31T15:38:46;8.88;;;6.18;;
13785;SDS011;47474;48.824;9.384;2022-10-31T15:41:21;10.23;;;6.38;;
13785;SDS011;47474;48.824;9.384;2022-10-31T15:43:49;9.27;;;7.03;;
13785;SDS011;47474;48.824;9.384;2022-10-31T15:46:22;9.90;;;7.65;;
13785;SDS011;47474;48.824;9.384;2022-10-31T15:48:52;12.95;;;9.23;;
13785;SDS011;47474;48.824;9.384;2022-10-31T15:51:24;15.13;;;8.98;;
13785;SDS011;47474;48.824;9.384;2022-10-31T15:53:54;13.25;;;8.55;;